Time;durP1;ratioP1;P1;durP2;ratioP2;P2;SDS_P1;SDS_P2;PMS_P1;PMS_P2;Temp;Humidity;BMP_temperature;BMP_pressure;BME280_temperature;BME280_humidity;BME280_pressure;Samples;Min_cycle;Max_cycle;Signal;HPM_P1;HPM_P2
2021/09/04 00:01:23;;;;;;;;;;;;;;;19.82;58.77;101421.97;4971598;28;98899;-72
2021/09/04 00:03:49;;;;;;;;;;;;;;;19.89;58.52;101422.44;4974184;28;96918;-72
2021/09/04 00:06:16;;;;;;;;;;;;;;;19.87;58.62;101430.63;4973913;28;96908;-73
2021/09/04 00:08:43;;;;;;;;;;;;;;;19.94;58.29;101423.03;4973433;28;98961;-73
2021/09/04 00:11:09;;;;;;;;;;;;;;;19.98;58.30;101429.06;4974058;28;99069;-74
2021/09/04 00:13:35;;;;;;;;;;;;;;;19.96;58.06;101426.47;4973756;28;96837;-73
2021/09/04 00:16:01;;;;;;;;;;;;;;;19.94;58.07;101424.88;4974390;28;96990;-72
2021/09/04 00:18:31;;;;;;;;;;;;;;;19.88;58.07;101424.31;4973050;28;99379;-73
2021/09/04 00:20:57;;;;;;;;;;;;;;;19.99;58.06;101425.41;4973212;28;99280;-72
2021/09/04 00:23:23;;;;;;;;;;;;;;;20.03;58.21;101430.47;4973650;28;96818;-72
2021/09/04 00:25:49;;;;;;;;;;;;;;;20.01;57.61;101424.38;4973913;28;96839;-72
2021/09/04 00:28:16;;;;;;;;;;;;;;;19.91;58.09;101425.91;4973572;28;99343;-73
2021/09/04 00:30:42;;;;;;;;;;;;;;;19.87;58.48;101421.72;4973727;28;98987;-72
2021/09/04 00:33:08;;;;;;;;;;;;;;;19.90;57.96;101421.50;4973430;28;96890;-72
2021/09/04 00:35:36;;;;;;;;;;;;;;;20.06;57.51;101411.53;4974593;28;96654;-72
2021/09/04 00:38:02;;;;;;;;;;;;;;;19.89;58.11;101415.28;4973666;28;98942;-72
2021/09/04 00:40:28;;;;;;;;;;;;;;;19.90;58.22;101417.00;4973542;28;98992;-72
2021/09/04 00:42:55;;;;;;;;;;;;;;;20.00;57.71;101417.28;4973275;28;96617;-73
2021/09/04 00:45:21;;;;;;;;;;;;;;;19.86;58.19;101414.63;4968358;28;97208;-73
2021/09/04 00:47:57;;;;;;;;;;;;;;;19.99;58.09;101428.09;4967372;28;98954;-74
2021/09/04 00:50:24;;;;;;;;;;;;;;;19.93;57.94;101426.69;4968441;28;98948;-73
2021/09/04 00:52:52;;;;;;;;;;;;;;;19.82;58.63;101424.66;4967374;28;97168;-73
2021/09/04 00:55:18;;;;;;;;;;;;;;;19.85;58.27;101419.13;4971481;28;97078;-73
2021/09/04 00:57:44;;;;;;;;;;;;;;;19.92;58.01;101414.22;4972282;28;98928;-73
2021/09/04 01:00:11;;;;;;;;;;;;;;;19.76;58.66;101413.47;4970839;28;99093;-73
2021/09/04 01:02:37;;;;;;;;;;;;;;;19.52;59.02;101407.81;4966466;28;96854;-74
2021/09/04 01:05:05;;;;;;;;;;;;;;;19.66;58.85;101413.19;4968647;28;96873;-73
2021/09/04 01:07:31;;;;;;;;;;;;;;;19.74;58.35;101418.94;4979333;28;98138;-73
2021/09/04 01:09:58;;;;;;;;;;;;;;;19.68;58.60;101418.47;4977234;28;98611;-74
2021/09/04 01:12:25;;;;;;;;;;;;;;;19.77;58.42;101417.88;4975267;28;97744;-73
2021/09/04 01:14:52;;;;;;;;;;;;;;;19.90;57.95;101417.00;4978080;28;96850;-74
2021/09/04 01:17:18;;;;;;;;;;;;;;;19.87;58.19;101411.84;4975964;28;98818;-73
2021/09/04 01:19:44;;;;;;;;;;;;;;;19.92;57.63;101411.53;4976595;28;99296;-74
2021/09/04 01:22:10;;;;;;;;;;;;;;;19.87;57.83;101411.84;4973161;28;96892;-74
2021/09/04 01:24:37;;;;;;;;;;;;;;;19.95;57.62;101410.50;4977081;28;97001;-74
2021/09/04 01:27:05;;;;;;;;;;;;;;;19.71;58.36;101415.56;4975474;28;99320;-74
2021/09/04 01:29:31;;;;;;;;;;;;;;;19.65;58.62;101410.59;4976813;28;97809;-73
2021/09/04 01:31:57;;;;;;;;;;;;;;;19.77;58.27;101417.88;4974045;28;97253;-73
2021/09/04 01:34:23;;;;;;;;;;;;;;;19.43;59.04;101416.41;4971436;28;96895;-73
2021/09/04 01:36:50;;;;;;;;;;;;;;;19.58;58.92;101420.84;4974758;28;98832;-73
2021/09/04 01:39:16;;;;;;;;;;;;;;;19.63;58.84;101416.06;4976795;28;99115;-72
2021/09/04 01:41:42;;;;;;;;;;;;;;;19.63;59.06;101417.88;4976352;28;97389;-74
2021/09/04 01:44:10;;;;;;;;;;;;;;;19.71;58.63;101410.22;4978684;28;96843;-76
2021/09/04 01:46:37;;;;;;;;;;;;;;;19.58;58.76;101411.94;4977182;28;99020;-74
2021/09/04 01:49:04;;;;;;;;;;;;;;;19.26;59.86;101406.72;4965393;28;97703;-73
2021/09/04 01:51:30;;;;;;;;;;;;;;;19.39;59.62;101405.00;4973075;28;97343;-75
2021/09/04 01:53:56;;;;;;;;;;;;;;;19.41;59.30;101404.94;4975384;28;96928;-73
2021/09/04 01:56:23;;;;;;;;;;;;;;;19.41;58.98;101396.88;4970665;28;98913;-74
2021/09/04 01:58:49;;;;;;;;;;;;;;;19.53;58.88;101395.28;4976630;28;99270;-73
2021/09/04 02:01:16;;;;;;;;;;;;;;;19.38;59.43;101402.41;4974216;28;97152;-74
2021/09/04 02:03:43;;;;;;;;;;;;;;;19.54;59.09;101397.88;4970369;28;96858;-74
2021/09/04 02:06:11;;;;;;;;;;;;;;;19.60;58.99;101386.78;4968198;28;98761;-74
2021/09/04 02:08:37;;;;;;;;;;;;;;;19.67;58.38;101385.44;4976032;28;98996;-74
2021/09/04 02:11:04;;;;;;;;;;;;;;;19.64;58.34;101390.97;4973857;28;96823;-74
2021/09/04 02:13:30;;;;;;;;;;;;;;;19.56;58.52;101401.31;4955405;28;96986;-73
2021/09/04 02:15:57;;;;;;;;;;;;;;;19.57;58.57;101397.66;4972595;28;99109;-74
2021/09/04 02:18:27;;;;;;;;;;;;;;;19.69;58.09;101402.25;4975266;28;98725;-75
2021/09/04 02:20:54;;;;;;;;;;;;;;;19.53;58.54;101390.78;4975131;28;97383;-74
2021/09/04 02:23:20;;;;;;;;;;;;;;;19.51;58.68;101395.38;4972803;28;98914;-74
2021/09/04 02:25:46;;;;;;;;;;;;;;;19.52;58.48;101389.06;4978832;28;99033;-73
2021/09/04 02:28:14;;;;;;;;;;;;;;;19.59;58.75;101394.91;4976505;28;96916;-75
2021/09/04 02:30:41;;;;;;;;;;;;;;;19.27;59.42;101383.47;4975536;28;96736;-74
2021/09/04 02:33:07;;;;;;;;;;;;;;;19.31;59.34;101390.34;4969501;28;100341;-74
2021/09/04 02:35:35;;;;;;;;;;;;;;;19.37;58.63;101382.78;4972760;28;98935;-74
2021/09/04 02:38:02;;;;;;;;;;;;;;;19.23;59.45;101387.31;4973020;28;98898;-74
2021/09/04 02:40:28;;;;;;;;;;;;;;;19.35;59.09;101392.78;4974163;28;97337;-74
2021/09/04 02:42:55;;;;;;;;;;;;;;;19.41;58.84;101397.75;4973103;28;98125;-74
2021/09/04 02:45:21;;;;;;;;;;;;;;;19.39;58.57;101391.63;4975192;28;99315;-74
2021/09/04 02:47:48;;;;;;;;;;;;;;;19.24;58.96;101389.88;4965104;28;98807;-74
2021/09/04 02:50:14;;;;;;;;;;;;;;;19.09;59.22;101386.34;4957206;28;96729;-74
2021/09/04 02:52:42;;;;;;;;;;;;;;;18.99;59.58;101385.16;4968152;28;97354;-74
2021/09/04 02:55:08;;;;;;;;;;;;;;;18.99;59.74;101389.66;4974503;28;98908;-73
2021/09/04 02:57:34;;;;;;;;;;;;;;;19.08;59.31;101395.31;4972135;28;99106;-73
2021/09/04 03:00:01;;;;;;;;;;;;;;;19.03;59.50;101393.88;4973032;28;97156;-73
2021/09/04 03:02:27;;;;;;;;;;;;;;;18.83;59.95;101395.06;4973040;28;96905;-72
2021/09/04 03:04:53;;;;;;;;;;;;;;;18.53;61.21;101396.81;4972227;28;99045;-74
2021/09/04 03:07:19;;;;;;;;;;;;;;;18.71;60.90;101390.41;4972052;28;98821;-73
2021/09/04 03:09:47;;;;;;;;;;;;;;;18.86;60.34;101396.69;4970129;28;96729;-73
2021/09/04 03:12:13;;;;;;;;;;;;;;;18.71;60.62;101396.63;4970809;28;97217;-74
2021/09/04 03:14:39;;;;;;;;;;;;;;;18.52;61.06;101389.75;4970912;28;99389;-74
2021/09/04 03:17:06;;;;;;;;;;;;;;;18.27;62.00;101393.84;4970431;28;98828;-74
2021/09/04 03:19:32;;;;;;;;;;;;;;;18.25;62.43;101398.41;4971942;28;97278;-74
2021/09/04 03:21:58;;;;;;;;;;;;;;;18.68;61.00;101396.84;4977135;28;97392;-74
2021/09/04 03:24:24;;;;;;;;;;;;;;;18.81;60.16;101402.31;4954852;28;98853;-73
2021/09/04 03:26:52;;;;;;;;;;;;;;;18.76;60.26;101398.19;4972943;28;99035;-73
2021/09/04 03:29:18;;;;;;;;;;;;;;;18.83;59.87;101399.56;4973511;28;96777;-74
2021/09/04 03:31:44;;;;;;;;;;;;;;;18.84;59.86;101399.44;4971175;28;96979;-74
2021/09/04 03:34:11;;;;;;;;;;;;;;;18.79;59.90;101400.69;4971011;28;99134;-73
2021/09/04 03:36:37;;;;;;;;;;;;;;;18.60;60.18;101407.13;4972044;28;99394;-75
2021/09/04 03:39:03;;;;;;;;;;;;;;;18.64;60.14;101411.34;4972035;28;96894;-75
2021/09/04 03:41:29;;;;;;;;;;;;;;;18.55;60.40;101406.53;4971751;28;97096;-74
2021/09/04 03:43:57;;;;;;;;;;;;;;;18.48;60.67;101407.81;4973025;28;98978;-74
2021/09/04 03:46:23;;;;;;;;;;;;;;;18.63;60.36;101408.78;4971863;28;98703;-75
2021/09/04 03:48:50;;;;;;;;;;;;;;;18.77;59.89;101413.31;4975832;28;97102;-73
2021/09/04 03:51:16;;;;;;;;;;;;;;;18.77;59.96;101416.00;4972999;28;96931;-74
2021/09/04 03:53:43;;;;;;;;;;;;;;;18.68;60.13;101412.91;4973074;28;98917;-74
2021/09/04 03:56:09;;;;;;;;;;;;;;;18.65;60.36;101417.56;4971969;28;99314;-74
2021/09/04 03:58:35;;;;;;;;;;;;;;;18.47;61.08;101419.47;4971511;28;96863;-75
2021/09/04 04:01:03;;;;;;;;;;;;;;;18.73;59.99;101420.66;4970426;28;96936;-74
2021/09/04 04:03:29;;;;;;;;;;;;;;;18.68;60.21;101418.25;4970380;28;99376;-74
2021/09/04 04:05:55;;;;;;;;;;;;;;;18.76;60.08;101415.13;4969323;28;99717;-74
2021/09/04 04:08:21;;;;;;;;;;;;;;;18.91;59.67;101418.69;4971232;28;97069;-75
2021/09/04 04:10:47;;;;;;;;;;;;;;;18.84;59.45;101417.34;4971397;28;96986;-75
2021/09/04 04:13:14;;;;;;;;;;;;;;;18.56;60.32;101426.13;4959911;28;98986;-74
2021/09/04 04:15:40;;;;;;;;;;;;;;;18.49;60.56;101425.59;4971877;28;98781;-73
2021/09/04 04:18:07;;;;;;;;;;;;;;;18.12;61.88;101423.25;4972863;28;96850;-74
2021/09/04 04:20:34;;;;;;;;;;;;;;;18.18;61.62;101428.28;4968054;28;96810;-74
2021/09/04 04:23:00;;;;;;;;;;;;;;;18.42;60.96;101423.34;4973298;28;98934;-74
2021/09/04 04:25:26;;;;;;;;;;;;;;;18.51;60.53;101423.66;4973332;28;100407;-74
2021/09/04 04:27:52;;;;;;;;;;;;;;;18.41;60.85;101424.31;4972208;28;97006;-74
2021/09/04 04:30:18;;;;;;;;;;;;;;;18.57;60.32;101434.09;4972909;28;96803;-74
2021/09/04 04:32:45;;;;;;;;;;;;;;;18.34;61.14;101437.16;4971739;28;98879;-74
2021/09/04 04:35:13;;;;;;;;;;;;;;;18.34;60.91;101437.16;4972877;28;97789;-74
2021/09/04 04:37:39;;;;;;;;;;;;;;;18.48;60.33;101439.06;4976271;28;96989;-74
2021/09/04 04:40:06;;;;;;;;;;;;;;;18.45;60.57;101439.22;4977237;28;96837;-75
2021/09/04 04:42:32;;;;;;;;;;;;;;;18.66;60.00;101449.59;4974669;28;98950;-74
2021/09/04 04:44:59;;;;;;;;;;;;;;;18.64;60.02;101450.66;4972199;28;98947;-74
2021/09/04 04:47:25;;;;;;;;;;;;;;;18.51;60.07;101450.44;4975323;28;97345;-74
2021/09/04 04:49:51;;;;;;;;;;;;;;;18.33;60.50;101454.16;4975862;28;96849;-74
2021/09/04 04:52:19;;;;;;;;;;;;;;;18.29;61.14;101447.28;4974756;28;99084;-74
2021/09/04 04:54:45;;;;;;;;;;;;;;;18.23;61.34;101450.28;4974956;28;99761;-74
2021/09/04 04:57:11;;;;;;;;;;;;;;;18.30;61.39;101451.69;4976434;28;96782;-74
2021/09/04 04:59:37;;;;;;;;;;;;;;;17.89;62.17;101449.50;4974897;28;96824;-74
2021/09/04 05:02:03;;;;;;;;;;;;;;;18.23;61.42;101453.84;4974223;28;99318;-74
2021/09/04 05:04:30;;;;;;;;;;;;;;;18.25;60.96;101454.59;4974260;28;99175;-74
2021/09/04 05:06:56;;;;;;;;;;;;;;;18.33;60.60;101459.50;4975911;28;97095;-74
2021/09/04 05:09:23;;;;;;;;;;;;;;;18.83;59.66;101462.00;4974685;28;96798;-75
2021/09/04 05:11:50;;;;;;;;;;;;;;;18.60;59.91;101457.97;4973154;28;98881;-75
2021/09/04 05:14:16;;;;;;;;;;;;;;;18.84;59.10;101455.69;4974538;28;99071;-74
2021/09/04 05:16:42;;;;;;;;;;;;;;;18.80;59.02;101459.50;4972968;28;97704;-74
2021/09/04 05:19:08;;;;;;;;;;;;;;;18.06;61.22;101458.38;4976104;28;96900;-74
2021/09/04 05:21:34;;;;;;;;;;;;;;;18.21;60.93;101454.84;4973375;28;99135;-74
2021/09/04 05:24:01;;;;;;;;;;;;;;;18.40;60.29;101460.91;4975003;28;99314;-74
2021/09/04 05:26:28;;;;;;;;;;;;;;;18.41;60.41;101459.94;4974649;28;96869;-74
2021/09/04 05:28:55;;;;;;;;;;;;;;;18.84;59.11;101461.03;4975641;28;96814;-73
2021/09/04 05:31:21;;;;;;;;;;;;;;;18.97;58.84;101462.03;4973922;28;99183;-74
2021/09/04 05:33:47;;;;;;;;;;;;;;;18.66;60.06;101462.09;4974254;28;98964;-73
2021/09/04 05:36:13;;;;;;;;;;;;;;;18.62;60.24;101469.47;4974086;28;96823;-73
2021/09/04 05:38:40;;;;;;;;;;;;;;;18.86;59.09;101460.94;4974910;28;97380;-74
2021/09/04 05:41:08;;;;;;;;;;;;;;;18.62;60.39;101466.78;4972224;28;99191;-74
2021/09/04 05:43:36;;;;;;;;;;;;;;;18.79;59.49;101463.13;4963901;28;99334;-73
2021/09/04 05:46:02;;;;;;;;;;;;;;;18.41;60.86;101464.44;4967307;28;96803;-74
2021/09/04 05:48:28;;;;;;;;;;;;;;;18.84;59.38;101466.38;4975329;28;96833;-73
2021/09/04 05:50:55;;;;;;;;;;;;;;;18.76;59.86;101474.03;4973094;28;99067;-73
2021/09/04 05:53:21;;;;;;;;;;;;;;;18.98;59.17;101465.59;4975198;28;99461;-74
2021/09/04 05:55:47;;;;;;;;;;;;;;;18.83;59.21;101463.81;4974136;28;96785;-74
2021/09/04 05:58:14;;;;;;;;;;;;;;;18.79;59.76;101473.84;4975277;28;96868;-74
2021/09/04 06:00:42;;;;;;;;;;;;;;;18.67;60.03;101467.38;4972176;28;98845;-73
2021/09/04 06:03:08;;;;;;;;;;;;;;;18.94;59.06;101472.94;4973383;28;98993;-73
2021/09/04 06:05:36;;;;;;;;;;;;;;;19.14;58.33;101471.78;4973843;28;96732;-73
2021/09/04 06:08:02;;;;;;;;;;;;;;;18.97;58.49;101472.75;4970869;28;98202;-73
2021/09/04 06:10:28;;;;;;;;;;;;;;;19.14;58.46;101469.09;4975218;28;99070;-74
2021/09/04 06:12:54;;;;;;;;;;;;;;;19.03;58.63;101476.91;4975325;28;97687;-73
2021/09/04 06:15:21;;;;;;;;;;;;;;;19.04;58.55;101474.13;4970423;28;97689;-74
2021/09/04 06:17:48;;;;;;;;;;;;;;;19.16;58.17;101467.19;4968806;28;97088;-73
2021/09/04 06:20:15;;;;;;;;;;;;;;;18.80;59.38;101480.06;4968996;28;98834;-74
2021/09/04 06:22:41;;;;;;;;;;;;;;;18.82;59.59;101480.84;4966822;28;99193;-74
2021/09/04 06:25:07;;;;;;;;;;;;;;;18.69;59.59;101478.88;4969564;28;97674;-73
2021/09/04 06:27:34;;;;;;;;;;;;;;;19.06;58.75;101469.53;4971633;28;97961;-74
2021/09/04 06:30:00;;;;;;;;;;;;;;;19.29;57.94;101473.53;4971079;28;99189;-74
2021/09/04 06:32:27;;;;;;;;;;;;;;;19.24;58.27;101469.38;4973862;28;98799;-74
2021/09/04 06:34:55;;;;;;;;;;;;;;;18.92;58.60;101463.25;4976700;28;97262;-74
2021/09/04 06:37:21;;;;;;;;;;;;;;;19.11;58.63;101471.94;4969856;28;97141;-74
2021/09/04 06:39:47;;;;;;;;;;;;;;;18.97;59.63;101471.91;4972574;28;99111;-73
2021/09/04 06:42:13;;;;;;;;;;;;;;;19.14;59.17;101479.81;4967477;28;98920;-74
2021/09/04 06:44:40;;;;;;;;;;;;;;;19.18;58.96;101481.34;4973327;28;98585;-72
2021/09/04 06:47:06;;;;;;;;;;;;;;;19.26;59.00;101478.19;4971686;28;97506;-73
2021/09/04 06:49:32;;;;;;;;;;;;;;;19.61;58.05;101482.31;4971473;28;99203;-74
2021/09/04 06:52:00;;;;;;;;;;;;;;;19.78;57.34;101486.63;4971476;28;98909;-74
2021/09/04 06:54:26;;;;;;;;;;;;;;;19.61;58.30;101493.06;4971988;28;98001;-75
2021/09/04 06:56:52;;;;;;;;;;;;;;;19.42;58.63;101489.75;4972103;28;97153;-73
2021/09/04 06:59:18;;;;;;;;;;;;;;;19.70;57.58;101496.97;4975865;28;98933;-76
2021/09/04 07:01:45;;;;;;;;;;;;;;;19.86;56.99;101489.72;4973562;28;98983;-73
2021/09/04 07:04:11;;;;;;;;;;;;;;;19.62;57.51;101492.09;4974106;28;96686;-74
2021/09/04 07:06:38;;;;;;;;;;;;;;;20.01;57.14;101499.50;4970803;28;97216;-73
2021/09/04 07:09:05;;;;;;;;;;;;;;;19.94;57.37;101505.31;4979204;28;98980;-74
2021/09/04 07:11:31;;;;;;;;;;;;;;;19.91;57.16;101503.69;4975206;28;98152;-74
2021/09/04 07:13:58;;;;;;;;;;;;;;;19.55;58.35;101511.34;4969477;28;96848;-74
2021/09/04 07:16:24;;;;;;;;;;;;;;;19.58;58.52;101513.81;4972971;28;96893;-74
2021/09/04 07:18:50;;;;;;;;;;;;;;;19.91;57.54;101509.06;4971879;28;99189;-74
2021/09/04 07:21:16;;;;;;;;;;;;;;;19.86;57.50;101505.81;4972028;28;98483;-74
2021/09/04 07:23:43;;;;;;;;;;;;;;;20.05;56.99;101514.41;4954432;28;96828;-73
2021/09/04 07:26:10;;;;;;;;;;;;;;;19.74;58.18;101514.59;4966036;28;97117;-74
2021/09/04 07:28:37;;;;;;;;;;;;;;;20.03;57.13;101510.97;4972127;28;99002;-75
2021/09/04 07:31:03;;;;;;;;;;;;;;;20.01;57.03;101506.66;4971525;28;98104;-74
2021/09/04 07:33:30;;;;;;;;;;;;;;;20.05;57.09;101506.38;4971823;28;96920;-73
2021/09/04 07:35:56;;;;;;;;;;;;;;;20.30;56.01;101506.53;4970882;28;97381;-74
2021/09/04 07:38:23;;;;;;;;;;;;;;;19.83;57.20;101506.84;4971445;28;99355;-74
2021/09/04 07:40:50;;;;;;;;;;;;;;;20.09;56.89;101502.53;4973022;28;98908;-75
2021/09/04 07:43:17;;;;;;;;;;;;;;;19.99;57.59;101509.44;4973889;28;96709;-74
2021/09/04 07:45:43;;;;;;;;;;;;;;;20.32;56.48;101509.13;4972269;28;96836;-75
2021/09/04 07:48:10;;;;;;;;;;;;;;;20.31;56.02;101507.41;4972054;28;98873;-73
2021/09/04 07:50:36;;;;;;;;;;;;;;;20.52;55.63;101505.19;4972201;28;98992;-73
2021/09/04 07:53:02;;;;;;;;;;;;;;;20.52;55.12;101515.94;4973120;28;96957;-74
2021/09/04 07:55:28;;;;;;;;;;;;;;;20.65;54.87;101516.84;4962822;28;96845;-73
2021/09/04 07:57:55;;;;;;;;;;;;;;;20.70;54.42;101509.34;4971743;28;98253;-73
2021/09/04 08:00:22;;;;;;;;;;;;;;;20.67;54.83;101521.19;4972621;28;98851;-74
2021/09/04 08:02:48;;;;;;;;;;;;;;;20.96;53.95;101521.91;4971814;28;96856;-74
2021/09/04 08:05:15;;;;;;;;;;;;;;;21.01;53.49;101530.53;4972624;28;97227;-74
2021/09/04 08:07:41;;;;;;;;;;;;;;;21.01;53.63;101530.53;4969643;28;99142;-74
2021/09/04 08:10:07;;;;;;;;;;;;;;;21.19;53.35;101539.25;4963312;28;99193;-74
2021/09/04 08:12:34;;;;;;;;;;;;;;;21.15;53.52;101543.03;4967069;28;97592;-74
2021/09/04 08:15:00;;;;;;;;;;;;;;;21.00;54.11;101544.91;4966937;28;97856;-73
2021/09/04 08:17:28;;;;;;;;;;;;;;;20.62;55.11;101539.38;4980616;28;100788;-74
2021/09/04 08:19:54;;;;;;;;;;;;;;;21.03;54.25;101543.88;4976326;28;98811;-75
2021/09/04 08:22:20;;;;;;;;;;;;;;;20.97;54.14;101549.66;4976392;28;96988;-74
2021/09/04 08:24:46;;;;;;;;;;;;;;;21.58;52.89;101553.63;4966631;28;97606;-74
2021/09/04 08:27:12;;;;;;;;;;;;;;;21.73;52.17;101556.09;4970546;28;98953;-75
2021/09/04 08:29:39;;;;;;;;;;;;;;;21.23;53.03;101553.31;4965360;28;98934;-73
2021/09/04 08:32:05;;;;;;;;;;;;;;;21.65;52.16;101553.09;4964191;28;97044;-74
2021/09/04 08:34:34;;;;;;;;;;;;;;;21.68;52.07;101552.00;4966971;28;96998;-73
2021/09/04 08:37:00;;;;;;;;;;;;;;;21.61;52.11;101543.50;4966024;28;98884;-73
2021/09/04 08:39:26;;;;;;;;;;;;;;;21.96;51.35;101548.28;4967827;28;97817;-73
2021/09/04 08:41:52;;;;;;;;;;;;;;;22.11;50.96;101544.53;4965658;28;96884;-74
2021/09/04 08:44:19;;;;;;;;;;;;;;;21.97;51.26;101548.19;4974198;28;99047;-74
2021/09/04 08:46:45;;;;;;;;;;;;;;;21.71;52.18;101547.28;4967964;28;98406;-73
2021/09/04 08:49:11;;;;;;;;;;;;;;;21.85;51.85;101547.19;4964970;28;99011;-74
2021/09/04 08:51:39;;;;;;;;;;;;;;;22.37;50.56;101546.22;4966407;28;97751;-74
2021/09/04 08:54:05;;;;;;;;;;;;;;;22.10;50.95;101537.41;4967663;28;97571;-73
2021/09/04 08:56:31;;;;;;;;;;;;;;;22.39;50.55;101557.72;4966688;28;99909;-73
2021/09/04 08:58:57;;;;;;;;;;;;;;;22.45;50.67;101559.13;4972871;28;99549;-74
2021/09/04 09:01:24;;;;;;;;;;;;;;;21.95;51.81;101560.00;4971336;28;96902;-74
2021/09/04 09:03:51;;;;;;;;;;;;;;;22.14;51.40;101561.31;4968452;28;96933;-72
2021/09/04 09:06:24;;;;;;;;;;;;;;;22.06;51.99;101566.34;4956861;28;98927;-74
2021/09/04 09:08:51;;;;;;;;;;;;;;;21.84;52.43;101564.31;4970329;28;98892;-74
2021/09/04 09:11:18;;;;;;;;;;;;;;;22.21;51.73;101559.03;4971767;28;97098;-74
2021/09/04 09:13:48;;;;;;;;;;;;;;;21.77;52.12;101564.84;4970721;28;99174;-73
2021/09/04 09:16:15;;;;;;;;;;;;;;;22.07;52.06;101560.00;4966303;28;98753;-74
2021/09/04 09:18:41;;;;;;;;;;;;;;;22.22;51.56;101561.63;4966874;28;101596;-74
2021/09/04 09:21:08;;;;;;;;;;;;;;;22.31;51.39;101567.34;4959114;28;96871;-74
2021/09/04 09:23:34;;;;;;;;;;;;;;;22.15;51.67;101575.63;4959223;28;96966;-73
2021/09/04 09:26:08;;;;;;;;;;;;;;;21.71;52.62;101568.81;4973981;28;98948;-73
2021/09/04 09:28:34;;;;;;;;;;;;;;;21.00;54.62;101574.47;4964856;28;99073;-74
2021/09/04 09:31:00;;;;;;;;;;;;;;;21.34;54.60;101583.88;4971228;28;96894;-74
2021/09/04 09:33:28;;;;;;;;;;;;;;;21.29;54.45;101577.09;4976330;28;96822;-73
2021/09/04 09:35:55;;;;;;;;;;;;;;;21.60;53.35;101565.09;4974091;28;98944;-74
2021/09/04 09:38:22;;;;;;;;;;;;;;;21.82;52.85;101566.22;4970644;28;99228;-73
2021/09/04 09:40:49;;;;;;;;;;;;;;;22.01;52.34;101575.72;4974579;28;97798;-74
2021/09/04 09:43:18;;;;;;;;;;;;;;;22.22;51.74;101574.22;4966054;28;96854;-74
2021/09/04 09:45:45;;;;;;;;;;;;;;;22.51;51.06;101574.84;4972366;28;99157;-74
2021/09/04 09:48:12;;;;;;;;;;;;;;;22.46;51.08;101566.22;4974204;28;98052;-74
2021/09/04 09:50:38;;;;;;;;;;;;;;;22.37;51.31;101570.44;4974852;28;96843;-73
2021/09/04 09:53:06;;;;;;;;;;;;;;;22.40;51.51;101572.91;4974415;28;96859;-71
2021/09/04 09:55:32;;;;;;;;;;;;;;;22.39;51.11;101576.56;4968008;28;101423;-72
2021/09/04 09:57:59;;;;;;;;;;;;;;;22.32;51.42;101574.44;4975176;28;99076;-73
2021/09/04 10:00:27;;;;;;;;;;;;;;;22.11;51.57;101576.81;4969915;28;98145;-74
2021/09/04 10:02:57;;;;;;;;;;;;;;;22.24;51.51;101580.38;4974930;28;97031;-74
2021/09/04 10:05:25;;;;;;;;;;;;;;;22.45;50.69;101576.13;4973053;28;99272;-74
2021/09/04 10:07:53;;;;;;;;;;;;;;;22.53;50.83;101575.56;4973650;28;98750;-74
2021/09/04 10:10:20;;;;;;;;;;;;;;;21.63;53.36;101581.06;4977030;28;96989;-73
2021/09/04 10:12:47;;;;;;;;;;;;;;;22.17;51.85;101576.38;4974597;28;96880;-75
2021/09/04 10:15:13;;;;;;;;;;;;;;;22.62;50.49;101570.38;4974350;28;98847;-73
2021/09/04 10:17:41;;;;;;;;;;;;;;;22.77;50.13;101576.53;4974389;28;98859;-74
2021/09/04 10:20:08;;;;;;;;;;;;;;;22.54;50.66;101578.16;4974966;28;96707;-74
2021/09/04 10:22:34;;;;;;;;;;;;;;;22.76;50.45;101579.31;4973130;28;97533;-74
2021/09/04 10:25:02;;;;;;;;;;;;;;;22.97;50.00;101581.28;4975423;28;98961;-73
2021/09/04 10:27:30;;;;;;;;;;;;;;;22.74;50.14;101567.78;4973035;28;98964;-73
2021/09/04 10:29:56;;;;;;;;;;;;;;;22.38;50.96;101574.88;4976101;28;96922;-74
2021/09/04 10:32:23;;;;;;;;;;;;;;;21.43;54.17;101588.66;4975143;28;96851;-73
2021/09/04 10:35:03;;;;;;;;;;;;;;;21.98;52.73;101575.97;4967748;28;99102;-73
2021/09/04 10:37:30;;;;;;;;;;;;;;;22.16;52.48;101575.53;4964073;28;99280;-74
2021/09/04 10:39:57;;;;;;;;;;;;;;;22.19;51.71;101571.72;4973236;28;98784;-73
2021/09/04 10:42:25;;;;;;;;;;;;;;;22.37;51.66;101572.28;4974295;28;96892;-73
2021/09/04 10:44:53;;;;;;;;;;;;;;;22.54;51.26;101567.38;4962357;28;99211;-74
2021/09/04 10:47:19;;;;;;;;;;;;;;;22.91;49.72;101567.41;4971792;28;100151;-75
2021/09/04 10:49:48;;;;;;;;;;;;;;;23.16;48.96;101564.63;4971604;28;96768;-74
2021/09/04 10:52:17;;;;;;;;;;;;;;;23.31;48.88;101571.53;4971292;28;96865;-74
2021/09/04 10:55:01;;;;;;;;;;;;;;;23.14;49.07;101565.69;4970307;28;99550;-74
2021/09/04 10:57:27;;;;;;;;;;;;;;;22.82;49.68;101571.66;4972732;28;99347;-75
2021/09/04 11:00:17;;;;;;;;;;;;;;;22.78;50.34;101572.84;4969322;28;96983;-74
2021/09/04 11:02:44;;;;;;;;;;;;;;;22.91;49.94;101570.94;4971095;28;96911;-74
2021/09/04 11:05:41;;;;;;;;;;;;;;;23.00;49.61;101572.13;4968449;28;98972;-74
2021/09/04 11:08:10;;;;;;;;;;;;;;;22.97;49.73;101566.97;4872631;28;101549;-74
2021/09/04 11:10:37;;;;;;;;;;;;;;;23.19;49.37;101563.50;4947706;28;97041;-75
2021/09/04 11:13:22;;;;;;;;;;;;;;;23.19;49.17;101567.06;4971202;28;96977;-75
2021/09/04 11:15:48;;;;;;;;;;;;;;;23.31;49.00;101568.81;4969554;28;98957;-74
2021/09/04 11:18:18;;;;;;;;;;;;;;;23.43;48.77;101569.75;4970034;28;97656;-75
2021/09/04 11:20:44;;;;;;;;;;;;;;;23.39;48.90;101565.56;4969293;28;96896;-74
2021/09/04 11:23:29;;;;;;;;;;;;;;;23.61;48.57;101579.16;4971569;28;96872;-74
2021/09/04 11:26:02;;;;;;;;;;;;;;;23.10;49.45;101578.56;4966994;28;99138;-74
2021/09/04 11:28:29;;;;;;;;;;;;;;;23.07;49.50;101578.78;4969141;28;99160;-75
2021/09/04 11:30:55;;;;;;;;;;;;;;;23.32;48.77;101580.47;4968305;28;97241;-74
2021/09/04 11:33:22;;;;;;;;;;;;;;;23.75;47.68;101572.69;4971367;28;97650;-74
2021/09/04 11:35:48;;;;;;;;;;;;;;;23.00;49.19;101572.13;4965325;28;98907;-74
2021/09/04 11:38:15;;;;;;;;;;;;;;;23.30;48.38;101572.50;4968380;28;98893;-74
2021/09/04 11:40:41;;;;;;;;;;;;;;;23.92;47.45;101572.22;4967307;28;97394;-75
2021/09/04 11:43:09;;;;;;;;;;;;;;;24.22;46.36;101572.53;4969157;28;97504;-73
2021/09/04 11:45:36;;;;;;;;;;;;;;;23.70;47.10;101566.78;4966844;28;98836;-75
2021/09/04 11:48:05;;;;;;;;;;;;;;;23.58;47.64;101573.13;4965135;28;98826;-74
2021/09/04 11:50:32;;;;;;;;;;;;;;;23.78;47.73;101573.31;4967592;28;97538;-75
2021/09/04 11:52:58;;;;;;;;;;;;;;;22.68;50.68;101569.06;4966986;28;97180;-75
2021/09/04 11:55:25;;;;;;;;;;;;;;;22.61;51.22;101579.44;4969722;28;98934;-75
2021/09/04 11:57:53;;;;;;;;;;;;;;;22.56;51.01;101578.91;4970703;28;98794;-75
2021/09/04 12:00:21;;;;;;;;;;;;;;;22.14;52.33;101572.06;4970406;28;97987;-73
2021/09/04 12:02:49;;;;;;;;;;;;;;;22.38;51.62;101564.09;4970387;28;97151;-74
2021/09/04 12:05:16;;;;;;;;;;;;;;;22.72;50.99;101577.78;4969865;28;98899;-73
2021/09/04 12:07:43;;;;;;;;;;;;;;;22.85;50.65;101578.63;4970400;28;98881;-74
2021/09/04 12:10:11;;;;;;;;;;;;;;;23.12;49.82;101578.41;4971361;28;97593;-74
2021/09/04 12:12:37;;;;;;;;;;;;;;;22.93;50.32;101581.63;4969930;28;97596;-74
2021/09/04 12:15:05;;;;;;;;;;;;;;;22.71;50.65;101579.59;4970495;28;97855;-75
2021/09/04 12:17:32;;;;;;;;;;;;;;;23.02;50.16;101580.97;4970359;28;98470;-74
2021/09/04 12:20:09;;;;;;;;;;;;;;;22.69;50.80;101578.03;4972824;28;96848;-74
2021/09/04 12:22:35;;;;;;;;;;;;;;;22.60;51.18;101569.63;4968203;28;97402;-74
2021/09/04 12:25:01;;;;;;;;;;;;;;;22.73;51.07;101574.16;4965260;28;99291;-73
2021/09/04 12:27:38;;;;;;;;;;;;;;;22.27;52.30;101580.13;4962535;28;98981;-73
2021/09/04 12:30:05;;;;;;;;;;;;;;;22.61;51.85;101583.97;4961649;28;98790;-76
2021/09/04 12:32:35;;;;;;;;;;;;;;;22.93;50.51;101571.72;4969593;28;96956;-74
2021/09/04 12:35:01;;;;;;;;;;;;;;;23.05;49.98;101570.78;4969746;28;101973;-74